Time;durP1;ratioP1;P1;durP2;ratioP2;P2;SDS_P1;SDS_P2;PMS_P1;PMS_P2;Temp;Humidity;BMP_temperature;BMP_pressure;BME280_temperature;BME280_humidity;BME280_pressure;Samples;Min_cycle;Max_cycle;Signal;HPM_P1;HPM_P2
2021/10/29 00:06:03;;;;;;;40.50;31.00;;;;;;;5.37;77.15;100041.14;461330;1190;141769;-65
2021/10/29 00:16:09;;;;;;;34.10;28.80;;;;;;;5.28;77.54;100037.66;471400;1190;142294;-66
2021/10/29 00:26:16;;;;;;;38.90;30.40;;;;;;;5.17;77.68;100034.02;470941;1190;143010;-66
2021/10/29 00:36:22;;;;;;;35.20;28.50;;;;;;;5.12;77.95;100025.34;477042;1190;140738;-66
2021/10/29 00:46:33;;;;;;;39.40;31.30;;;;;;;5.09;77.82;100019.89;466566;1190;142448;-64
2021/10/29 00:56:40;;;;;;;39.30;29.60;;;;;;;5.10;78.10;100003.73;460434;1177;141455;-65
2021/10/29 01:06:46;;;;;;;35.80;29.30;;;;;;;5.10;78.25;99994.20;468383;1190;141079;-65
2021/10/29 01:16:52;;;;;;;33.90;28.40;;;;;;;5.06;78.14;99989.28;477913;1189;140414;-65
2021/10/29 01:26:59;;;;;;;37.20;27.60;;;;;;;5.01;78.03;99979.56;476923;1190;142139;-65
2021/10/29 01:37:07;;;;;;;42.70;32.30;;;;;;;4.97;78.30;99973.64;474495;1190;142310;-65
2021/10/29 01:47:15;;;;;;;39.00;31.00;;;;;;;4.91;78.20;99967.78;477944;1190;141394;-66
2021/10/29 01:57:21;;;;;;;40.10;31.60;;;;;;;4.81;78.34;99957.17;469510;1190;141774;-66
2021/10/29 02:07:28;;;;;;;50.10;36.00;;;;;;;4.69;78.41;99944.04;470837;1190;145275;-65
2021/10/29 02:17:34;;;;;;;40.50;30.50;;;;;;;4.58;78.65;99936.61;461797;1190;195633;-65
2021/10/29 02:27:41;;;;;;;40.70;30.60;;;;;;;4.49;78.95;99929.80;464817;1190;141425;-66
2021/10/29 02:37:47;;;;;;;43.70;33.90;;;;;;;4.44;79.06;99926.34;469364;1190;183450;-66
2021/10/29 02:47:53;;;;;;;44.00;30.60;;;;;;;4.37;79.24;99919.27;471982;1190;141106;-67
2021/10/29 02:57:59;;;;;;;41.00;31.50;;;;;;;4.28;79.10;99916.96;471789;1190;143131;-65
2021/10/29 03:08:06;;;;;;;43.30;33.40;;;;;;;4.14;79.17;99923.46;470585;1190;141356;-65
2021/10/29 03:18:12;;;;;;;43.60;35.00;;;;;;;4.02;79.20;99915.89;466575;1190;141390;-65
2021/10/29 03:28:18;;;;;;;43.50;33.90;;;;;;;3.92;79.73;99913.60;477906;1190;141638;-65
2021/10/29 03:49:13;;;;;;;47.00;34.60;;;;;;;3.70;79.99;99907.52;473915;1190;142267;-64
2021/10/29 03:59:20;;;;;;;47.80;36.40;;;;;;;3.62;80.26;99903.06;477876;1182;144077;-66
2021/10/29 04:09:26;;;;;;;51.70;38.60;;;;;;;3.55;80.20;99902.60;473105;1190;141805;-65
2021/10/29 04:19:33;;;;;;;53.00;36.90;;;;;;;3.45;80.61;99899.96;477965;1190;141155;-66
2021/10/29 04:29:40;;;;;;;47.20;35.30;;;;;;;3.38;80.70;99895.82;477114;1190;140309;-65
2021/10/29 04:39:48;;;;;;;98.20;63.10;;;;;;;3.33;80.76;99892.67;473770;1190;140405;-66
2021/10/29 04:49:53;;;;;;;53.60;40.40;;;;;;;3.21;80.66;99894.40;477869;1190;141480;-66
2021/10/29 05:00:01;;;;;;;60.60;40.30;;;;;;;3.12;80.73;99884.48;476761;1190;141035;-68
2021/10/29 05:10:09;;;;;;;48.20;35.50;;;;;;;3.03;81.06;99875.55;467334;1189;141381;-63
2021/10/29 05:20:14;;;;;;;;;;;;;;;2.90;81.26;99878.65;477776;1190;140965;-74
2021/10/29 05:30:20;;;;;;;53.00;40.40;;;;;;;2.82;81.25;99876.99;477337;1190;127336;-73
2021/10/29 05:40:27;;;;;;;57.80;38.80;;;;;;;2.80;81.19;99874.96;476934;1190;142721;-72
2021/10/29 05:50:33;;;;;;;52.90;40.50;;;;;;;2.88;81.39;99878.02;460886;1190;140902;-72
2021/10/29 06:00:39;;;;;;;47.70;37.90;;;;;;;3.01;81.42;99876.62;477843;1190;141248;-73
2021/10/29 06:10:45;;;;;;;47.90;36.80;;;;;;;3.26;81.25;99873.00;477931;1190;141069;-68
2021/10/29 06:20:53;;;;;;;50.40;36.00;;;;;;;3.66;80.54;99874.23;477092;1182;141947;-61
2021/10/29 06:31:00;;;;;;;44.70;34.50;;;;;;;4.38;80.11;99876.73;473476;1187;140791;-62
2021/10/29 06:41:06;;;;;;;41.00;33.00;;;;;;;7.73;77.72;99881.36;464219;1190;141357;-70
2021/10/29 07:01:43;;;;;;;35.00;28.70;;;;;;;15.30;66.53;99874.22;463039;1190;140520;-68
2021/10/29 07:12:13;;;;;;;33.60;28.60;;;;;;;18.03;60.89;99873.86;467429;1190;140601;-69
2021/10/29 07:43:08;;;;;;;22.00;19.70;;;;;;;23.81;47.44;99868.81;447303;1190;10001842;-65
2021/10/29 07:53:15;;;;;;;21.50;19.40;;;;;;;25.20;44.13;99869.77;468680;1191;142537;-67
2021/10/29 08:03:20;;;;;;;;;;;;;;;26.01;41.03;99873.34;465878;1190;139967;-61
2021/10/29 08:13:27;;;;;;;20.90;18.40;;;;;;;26.95;38.84;99876.92;473445;1190;126680;-67
2021/10/29 08:23:33;;;;;;;18.00;16.40;;;;;;;28.13;36.31;99874.16;462266;1190;140356;-63
2021/10/29 08:33:39;;;;;;;17.60;15.80;;;;;;;29.06;34.09;99869.67;471203;1184;140758;-66
2021/10/29 08:43:46;;;;;;;15.60;14.30;;;;;;;29.32;32.31;99865.22;462391;1184;141152;-63
2021/10/29 08:53:55;;;;;;;15.30;13.80;;;;;;;30.51;30.89;99861.52;461899;1190;140886;-59
2021/10/29 09:04:05;;;;;;;13.50;12.20;;;;;;;31.26;29.11;99848.80;467575;1190;139631;-58
2021/10/29 09:35:09;;;;;;;33.90;14.30;;;;;;;20.68;32.23;99853.06;465686;1190;141371;-58
2021/10/29 09:45:19;;;;;;;17.30;14.10;;;;;;;17.72;34.51;99850.38;462942;1190;140007;-58
2021/10/29 09:55:45;;;;;;;15.80;12.60;;;;;;;16.12;36.57;99846.38;463133;1190;141501;-58
2021/10/29 10:05:53;;;;;;;18.00;14.00;;;;;;;15.18;38.00;99847.94;467038;1178;140376;-58
2021/10/29 10:16:01;;;;;;;;;;;;;;;14.66;38.75;99842.95;469989;1190;142157;-60
2021/10/29 10:26:26;;;;;;;14.80;10.30;;;;;;;14.14;39.04;99841.95;467828;1190;127804;-58
2021/10/29 10:47:04;;;;;;;13.00;9.90;;;;;;;13.89;39.47;99829.89;467314;1190;140774;-66
2021/10/29 11:09:53;;;;;;;14.40;10.10;;;;;;;13.95;39.52;99812.20;471005;1190;141315;-67
2021/10/29 11:18:33;;;;;;;12.70;9.50;;;;;;;14.00;39.54;99804.44;471976;1189;140312;-67
2021/10/29 11:28:42;;;;;;;12.90;8.20;;;;;;;14.15;39.46;99792.73;469555;1189;142322;-63
2021/10/29 11:38:51;;;;;;;11.90;7.70;;;;;;;14.26;38.50;99785.43;475919;1190;194009;-68
2021/10/29 11:49:05;;;;;;;12.10;9.50;;;;;;;14.37;38.81;99769.28;475280;1190;142277;-63
2021/10/29 11:59:29;;;;;;;12.80;11.40;;;;;;;14.46;39.65;99760.29;462313;1190;142001;-61
2021/10/29 12:09:36;;;;;;;14.30;9.50;;;;;;;14.49;39.74;99752.31;463376;1190;140087;-62
2021/10/29 12:19:45;;;;;;;12.80;9.30;;;;;;;14.54;39.51;99746.83;465017;1190;140707;-63
2021/10/29 13:01:55;;;;;;;16.90;12.90;;;;;;;14.74;39.99;99708.27;461600;1195;139833;-59
2021/10/29 13:12:07;;;;;;;12.00;10.70;;;;;;;14.68;40.38;99704.17;467937;1196;142069;-63
2021/10/29 13:53:55;;;;;;;;;;;;;;;14.37;41.45;99701.62;460129;1196;158257;-62
2021/10/29 14:35:15;;;;;;;22.90;16.60;;;;;;;13.74;44.05;99700.27;457975;1197;140298;-61
2021/10/29 14:45:25;;;;;;;22.80;18.20;;;;;;;13.45;44.81;99696.09;462525;1197;140558;-63
2021/10/29 15:48:04;;;;;;;25.20;17.90;;;;;;;11.57;49.91;99679.29;458941;1196;140365;-59
2021/10/29 15:58:19;;;;;;;23.00;17.10;;;;;;;11.30;51.10;99676.84;466449;1195;139729;-59
2021/10/29 16:18:49;;;;;;;23.90;19.40;;;;;;;10.70;53.06;99674.36;464251;1196;140773;-59
2021/10/29 16:28:55;;;;;;;25.70;19.60;;;;;;;10.48;54.08;99667.70;469673;1195;139364;-62
2021/10/29 16:39:01;;;;;;;30.50;19.60;;;;;;;10.28;54.91;99662.73;467584;1195;139542;-63
2021/10/29 16:49:08;;;;;;;25.90;19.50;;;;;;;10.08;55.61;99661.85;458511;1186;140510;-65
2021/10/29 16:59:14;;;;;;;22.30;17.40;;;;;;;9.84;56.15;99659.27;459418;1196;139967;-68
2021/10/29 17:09:21;;;;;;;21.80;16.80;;;;;;;9.58;56.62;99660.98;464661;1195;141734;-66
2021/10/29 17:19:27;;;;;;;24.40;19.00;;;;;;;9.37;57.31;99656.92;467515;1195;140897;-65
2021/10/29 17:29:33;;;;;;;26.50;20.40;;;;;;;9.23;57.74;99658.96;473218;1195;197593;-63
2021/10/29 17:39:39;;;;;;;25.40;19.40;;;;;;;9.10;58.23;99664.23;464218;1195;141946;-61
2021/10/29 17:49:46;;;;;;;36.10;22.70;;;;;;;8.96;58.49;99664.83;460443;1193;140036;-61
2021/10/29 17:59:54;;;;;;;32.80;22.70;;;;;;;8.82;58.85;99659.45;464725;1193;140583;-56
2021/10/29 18:10:05;;;;;;;32.70;23.10;;;;;;;8.71;59.10;99665.83;460804;1187;144344;-58
2021/10/29 18:20:12;;;;;;;32.00;23.20;;;;;;;8.59;59.36;99660.73;459731;1193;140897;-61
2021/10/29 18:30:21;;;;;;;30.20;21.00;;;;;;;8.51;59.30;99659.58;469531;1193;142040;-60
2021/10/29 18:40:28;;;;;;;28.10;20.40;;;;;;;8.45;59.23;99659.35;459977;1193;140926;-62
2021/10/29 18:50:34;;;;;;;28.10;20.10;;;;;;;8.39;59.21;99667.36;458876;1193;141424;-60
2021/10/29 19:00:41;;;;;;;26.20;19.70;;;;;;;8.30;59.20;99666.95;459591;1194;140797;-60
2021/10/29 19:10:47;;;;;;;28.00;21.30;;;;;;;8.18;59.18;99663.38;461192;1190;143673;-61
2021/10/29 19:20:53;;;;;;;30.90;17.90;;;;;;;8.12;58.93;99661.45;460598;1189;140293;-60
2021/10/29 19:30:59;;;;;;;23.30;16.40;;;;;;;8.14;58.82;99665.21;461395;1189;142967;-60
2021/10/29 19:41:06;;;;;;;34.40;22.60;;;;;;;8.12;58.98;99666.67;461717;1189;143612;-63
2021/10/29 19:51:12;;;;;;;26.70;20.50;;;;;;;8.05;59.08;99666.02;452654;1189;10002662;-63
2021/10/29 20:01:19;;;;;;;27.90;19.80;;;;;;;8.02;59.25;99666.51;461762;1190;142449;-62
2021/10/29 20:11:26;;;;;;;33.10;21.70;;;;;;;7.96;59.37;99668.35;460937;1190;139797;-63
2021/10/29 20:21:32;;;;;;;27.70;21.20;;;;;;;7.78;59.71;99665.63;464912;1189;140763;-61
2021/10/29 20:31:38;;;;;;;27.60;20.90;;;;;;;7.64;60.04;99659.71;467906;1189;141402;-62
2021/10/29 20:41:44;;;;;;;27.10;20.70;;;;;;;7.52;60.30;99648.14;463067;1190;141527;-63
2021/10/29 20:51:57;;;;;;;33.90;23.20;;;;;;;7.42;60.61;99648.24;463299;1190;141444;-60
2021/10/29 21:02:03;;;;;;;27.80;21.20;;;;;;;7.36;60.81;99647.52;467466;1189;141039;-61
2021/10/29 21:12:11;;;;;;;31.10;22.70;;;;;;;7.30;60.96;99640.33;461762;1189;141632;-61
2021/10/29 21:22:17;;;;;;;34.00;24.20;;;;;;;7.22;60.99;99639.17;463895;1189;142129;-60
2021/10/29 21:32:24;;;;;;;37.40;24.50;;;;;;;7.11;61.21;99629.04;461851;1177;141309;-58
2021/10/29 21:42:30;;;;;;;34.70;24.40;;;;;;;7.07;61.43;99612.38;467844;1189;151701;-60
2021/10/29 21:52:36;;;;;;;34.70;22.70;;;;;;;7.07;61.52;99610.44;462147;1189;142116;-60
2021/10/29 22:02:45;;;;;;;30.40;21.90;;;;;;;7.02;61.49;99600.41;468294;1190;143039;-60
2021/10/29 22:12:52;;;;;;;30.30;21.70;;;;;;;6.97;61.67;99598.75;464982;1189;141264;-59
2021/10/29 22:23:01;;;;;;;30.80;21.60;;;;;;;6.88;61.76;99605.11;469520;1189;140704;-58
2021/10/29 22:33:07;;;;;;;31.60;22.70;;;;;;;6.71;61.94;99606.43;461479;1189;143075;-59
2021/10/29 22:43:13;;;;;;;28.00;20.50;;;;;;;6.59;62.23;99619.02;467626;1189;141800;-58
2021/10/29 22:53:21;;;;;;;26.50;20.50;;;;;;;6.48;62.35;99629.94;461091;1189;141654;-59
2021/10/29 23:03:26;;;;;;;31.90;22.80;;;;;;;6.37;62.49;99640.71;471347;1189;140959;-58
2021/10/29 23:13:33;;;;;;;30.20;21.60;;;;;;;6.23;62.70;99643.56;477780;1189;140947;-58
2021/10/29 23:23:39;;;;;;;32.50;24.60;;;;;;;6.14;62.98;99645.58;471982;1189;182858;-58
2021/10/29 23:33:45;;;;;;;33.60;22.10;;;;;;;6.06;63.06;99636.86;477803;1189;141432;-59
2021/10/29 23:43:51;;;;;;;32.00;23.80;;;;;;;5.98;63.46;99640.80;473646;1189;140977;-58
2021/10/29 23:53:57;;;;;;;31.50;22.70;;;;;;;5.91;63.40;99641.66;477055;1189;141739;-59
